M I D A S
Marine Information and Data Acquisition System
Tripno 359 of the Zeeleeuw from 2002-11-18 08:06:18 to 2002-11-18 15:35:00
Back to CruiseResearch ActivitiesStationsMapUnderway DataData graphs

EquipmentUnitsComment
TimeDGPSUTC
LatitudeDGPSDM.mWGS84
LongitudeDGPSDM.mWGS84
TemperatureSBE03/SBE38deg celciusITS90
ConductivitySBE21S/mITS90
SalinitySBE21 Practical Salinity Units
ChlorophylAChelsea fluorimeterg/lCalibrated in Aceton
Missing or incorrect values are displayed as -999
Sea surface data collected by the RV Zeeleeuw from 2002-11-18 08:06:18 to 2002-11-18 15:35:00
Time Latitude Longitude Temperature Conductivity Salinity ChlorophylA
2002-11-18 08:07:23 51°14.866 2°54.295 11.051145 3.716849 32.926564  
2002-11-18 08:08:22 51°15.038 2°54.14 11.343675 3.737506 33.13319  
2002-11-18 08:09:21 51°15.21 2°53.983 11.270158 3.741616 33.17664  
2002-11-18 08:10:22 51°15.389 2°53.821 11.390345 3.749099 33.246908  
2002-11-18 08:11:22 51°15.564 2°53.657 11.372296 3.760587 33.347324  
2002-11-18 08:12:23 51°15.743 2°53.491 11.383273 3.77882 33.514343  
2002-11-18 08:13:23 51°15.918 2°53.329 11.371653 3.804432 33.745512  
2002-11-18 08:14:22 51°16.089 2°53.17 11.48143 3.812442 33.753675  
2002-11-18 08:15:22 51°16.265 2°53.009 11.525482 3.824246 33.769323  
2002-11-18 08:16:22 51°16.442 2°52.849 11.414264 3.836051 33.825695  
2002-11-18 08:17:23 51°16.632 2°52.688 11.437486 3.852599 33.922665  
2002-11-18 08:18:22 51°16.82 2°52.552 11.440377 3.860715 33.98628  
2002-11-18 08:19:22 51°17.011 2°52.422 11.432806 3.865248 34.030767  
2002-11-18 08:20:22 51°17.205 2°52.299 11.412382 3.867778 34.062914  
2002-11-18 08:21:22 51°17.401 2°52.186 11.384696 3.865248 34.060021  
2002-11-18 08:22:23 51°17.6 2°52.071 11.364028 3.8604 34.032871  
2002-11-18 08:23:22 51°17.79 2°51.949 11.343124 3.854075 33.988996  
2002-11-18 08:24:21 51°17.977 2°51.81 11.271814 3.845643 33.936053  
2002-11-18 08:25:22 51°18.171 2°51.664 11.233254 3.829516 33.835786  
2002-11-18 08:26:22 51°18.362 2°51.516 11.210006 3.82119 33.783701  
2002-11-18 08:27:22 51°18.553 2°51.368 11.186473 3.81613 33.752089  
2002-11-18 08:28:23 51°18.745 2°51.214 11.107246 3.805485 33.679957  
2002-11-18 08:29:22 51°18.932 2°51.062 11.021091 3.779979 33.509067  
2002-11-18 08:30:21 51°19.119 2°50.911 10.972495 3.75869 33.366994  
2002-11-18 08:31:22 51°19.314 2°50.755 10.960664 3.753315 33.333434  
2002-11-18 08:32:21 51°19.502 2°50.606 10.970739 3.748256 33.296452  
2002-11-18 08:33:22 51°19.696 2°50.457 11.024923 3.755528 33.35242  
2002-11-18 08:34:23 51°19.896 2°50.308 11.118913 3.788411 33.585052  
2002-11-18 08:35:21 51°20.091 2°50.162 11.174588 3.802429 33.674593  
2002-11-18 08:36:22 51°20.294 2°50 11.161227 3.809491 33.720913  
2002-11-18 08:37:23 51°20.489 2°49.808 11.43611 3.800426 33.640993  
2002-11-18 08:38:23 51°20.662 2°49.572 11.342388 3.804642 33.694973  
2002-11-18 08:39:23 51°20.827 2°49.311 11.379323 3.812758 33.753142  
2002-11-18 08:40:23 51°20.997 2°49.061 11.326441 3.810861 33.738808  
2002-11-18 08:41:23 51°21.191 2°48.879 11.199369 3.81982 33.80745  
2002-11-18 08:42:21 51°21.398 2°48.822 11.603979 3.852495 34.00199  
2002-11-18 08:43:22 51°21.617 2°48.775 11.682017 3.911523 34.308671  
2002-11-18 08:44:24 51°21.84 2°48.724 11.74439 3.922697 34.347627  
2002-11-18 08:45:24 51°22.056 2°48.676 11.805974 3.930813 34.365442  
2002-11-18 08:46:23 51°22.269 2°48.63 11.893162 3.938403 34.383205  
2002-11-18 08:47:22 51°22.48 2°48.578 12.015405 3.954426 34.429034  
2002-11-18 08:48:21 51°22.689 2°48.556 12.067558 3.966654 34.465534  
2002-11-18 08:49:21 51°22.903 2°48.531 12.101909 3.971503 34.473309  
2002-11-18 08:50:21 51°23.116 2°48.505 12.135199 3.976563 34.488199  
2002-11-18 08:51:21 51°23.331 2°48.488 12.158896 3.981307 34.507267  
2002-11-18 08:52:21 51°23.545 2°48.476 12.183764 3.984786 34.518434  
2002-11-18 08:53:21 51°23.759 2°48.473 12.199097 3.98837 34.532062  
2002-11-18 08:54:21 51°23.975 2°48.473 12.213747 3.990479 34.537942  
2002-11-18 08:55:21 51°24.191 2°48.474 12.225039 3.991428 34.533344  
2002-11-18 08:56:21 51°24.409 2°48.477 12.234288 3.99206 34.531488  
2002-11-18 08:57:23 51°24.633 2°48.481 12.246301 3.991533 34.51482  
2002-11-18 08:58:23 51°24.851 2°48.482 12.262209 3.991638 34.502823  
2002-11-18 08:59:23 51°25.068 2°48.486 12.299268 3.993114 34.499721  
2002-11-18 09:00:23 51°25.286 2°48.488 12.343006 3.999228 34.51679  
2002-11-18 09:01:23 51°25.504 2°48.493 12.387665 4.00587 34.54829  
2002-11-18 09:02:23 51°25.687 2°48.5 12.413985 4.010719 34.553136  
2002-11-18 09:03:23 51°25.813 2°48.555 12.42809 4.013355 34.556147  
2002-11-18 09:04:23 51°25.928 2°48.626 12.435819 4.01462 34.559666  
2002-11-18 09:05:24 51°26.02 2°48.651 12.45105 4.016096 34.56881  
2002-11-18 09:06:23 51°26.061 2°48.618 12.458008 4.017677 34.568166  
2002-11-18 09:07:23 51°26.08 2°48.581 12.462572 4.019153 34.574427  
2002-11-18 09:08:23 51°26.086 2°48.545 12.458957 4.020208 34.575917  
2002-11-18 09:09:21 51°26.084 2°48.515 12.467677 4.019786 34.581223  
2002-11-18 09:10:21 51°26.078 2°48.492 12.475312 4.021051 34.581138  
2002-11-18 09:11:23 51°26.069 2°48.473 12.455975 4.02084 34.58559  
2002-11-18 09:12:23 51°26.059 2°48.459 12.461713 4.020524 34.578954  
2002-11-18 09:13:23 51°26.049 2°48.449 12.456653 4.020313 34.583407  
2002-11-18 09:14:21 51°26.038 2°48.445 12.456291 4.020102 34.584981  
2002-11-18 09:15:23 51°26.028 2°48.444 12.455704 4.019891 34.582236  
2002-11-18 09:16:23 51°26.017 2°48.448 12.456517 4.019786 34.581943  
2002-11-18 09:17:24 51°26.007 2°48.453 12.456698 4.019891 34.581516  
2002-11-18 09:18:23 51°26.003 2°48.465 12.456698 4.020629 34.586445  
2002-11-18 09:19:24 51°25.997 2°48.471 12.454755 4.020102 34.583541  
2002-11-18 09:20:23 51°25.986 2°48.473 12.454665 4.019997 34.583968  
2002-11-18 09:21:23 51°25.967 2°48.482 12.501868 4.020102 34.582821  
2002-11-18 09:22:24 51°25.945 2°48.51 12.455749 4.020418 34.5837  
2002-11-18 09:23:24 51°25.932 2°48.542 12.451682 4.019997 34.583248  
2002-11-18 09:24:23 51°25.927 2°48.571 12.450688 4.01947 34.577465  
2002-11-18 09:25:24 51°25.927 2°48.598 12.445763 4.019364 34.576453  
2002-11-18 09:26:23 51°25.935 2°48.621 12.448158 4.018942 34.576001  
2002-11-18 09:27:24 51°25.969 2°48.615 12.445898 4.018732 34.576135  
2002-11-18 09:28:23 51°25.996 2°48.587 12.447028 4.019153 34.578746  
2002-11-18 09:29:24 51°26.016 2°48.567 12.451863 4.019891 34.584396  
2002-11-18 09:30:24 51°26.03 2°48.552 12.444588 4.020102 34.587141  
2002-11-18 09:31:24 51°26.043 2°48.544 12.446124 4.019681 34.58669  
2002-11-18 09:32:24 51°26.052 2°48.538 12.452225 4.020735 34.588897  
2002-11-18 09:33:23 51°26.058 2°48.534 12.44983 4.021157 34.595108  
2002-11-18 09:34:23 51°26.062 2°48.532 12.450824 4.020946 34.593803  
2002-11-18 09:35:24 51°26.064 2°48.533 12.453535 4.021262 34.595401  
2002-11-18 09:36:23 51°26.067 2°48.534 12.454394 4.021684 34.595131  
2002-11-18 09:37:23 51°26.071 2°48.501 12.456924 4.021262 34.591801  
2002-11-18 09:38:23 51°26.067 2°48.476 12.453535 4.021895 34.594996  
2002-11-18 09:39:23 51°26.061 2°48.457 12.451908 4.021684 34.596571  
2002-11-18 09:40:23 51°26.055 2°48.446 12.451547 4.021789 34.596144  
2002-11-18 09:41:23 51°26.05 2°48.439 12.452496 4.021473 34.597427  
2002-11-18 09:42:23 51°26.045 2°48.435 12.453897 4.021684 34.596571  
2002-11-18 09:43:23 51°26.042 2°48.436 12.46456 4.021684 34.595851  
2002-11-18 09:44:21 51°26.039 2°48.442 12.463973 4.022843 34.598349  
2002-11-18 09:45:21 51°26.037 2°48.451 12.462165 4.023265 34.601679  
2002-11-18 09:46:23 51°26.035 2°48.465 12.461939 4.022738 34.596617  
2002-11-18 09:47:24 51°26.031 2°48.481 12.458822 4.022633 34.597764  
2002-11-18 09:48:23 51°26.028 2°48.498 12.459816 4.022527 34.598911  
2002-11-18 09:49:23 51°26.026 2°48.515 12.456698 4.022422 34.597899  
2002-11-18 09:50:24 51°26.029 2°48.53 12.456201 4.022105 34.594141  
2002-11-18 09:51:23 51°26.034 2°48.538 12.459545 4.022105 34.595581  
2002-11-18 09:52:23 51°26.043 2°48.537 12.456698 4.022843 34.599789  
2002-11-18 09:53:23 51°26.046 2°48.533 12.457421 4.022 34.598169  
2002-11-18 09:54:23 51°26.046 2°48.529 12.458234 4.022527 34.600352  
2002-11-18 09:55:23 51°26.042 2°48.525 12.478925 4.022527 34.597471  
2002-11-18 09:56:23 51°26.034 2°48.527 12.478338 4.023898 34.597675  
2002-11-18 09:57:24 51°26.02 2°48.534 12.481094 4.024636 34.597564  
2002-11-18 09:58:24 51°26.006 2°48.547 12.467316 4.023687 34.59781  
2002-11-18 09:59:24 51°25.99 2°48.569 12.47355 4.022843 34.595469  
2002-11-18 10:00:24 51°25.968 2°48.591 12.464966 4.02453 34.600869  
2002-11-18 10:01:24 51°25.937 2°48.554 12.49952 4.023054 34.596055  
2002-11-18 10:02:24 51°25.957 2°48.491 12.456653 4.022422 34.594299  
2002-11-18 10:03:24 51°26.017 2°48.472 12.460991 4.022211 34.591555  
2002-11-18 10:04:24 51°26.048 2°48.493 12.468671 4.022843 34.596909  
2002-11-18 10:05:24 51°26.061 2°48.525 12.460719 4.023898 34.600554  
2002-11-18 10:06:24 51°26.07 2°48.557 12.460403 4.023476 34.600104  
2002-11-18 10:07:24 51°26.075 2°48.586 12.45462 4.023054 34.600374  
2002-11-18 10:08:24 51°26.077 2°48.611 12.462798 4.022949 34.602242  
2002-11-18 10:09:24 51°26.079 2°48.63 12.464469 4.02337 34.599092  
2002-11-18 10:10:24 51°26.081 2°48.644 12.462436 4.023476 34.599384  
2002-11-18 10:11:24 51°26.083 2°48.662 12.462391 4.023265 34.600959  
2002-11-18 10:12:22 51°26.063 2°48.716 12.471291 4.024214 34.600711  
2002-11-18 10:13:24 51°26.02 2°48.711 12.464695 4.024319 34.601004  
2002-11-18 10:14:24 51°26.015 2°48.654 12.465328 4.023476 34.596505  
2002-11-18 10:15:24 51°26.024 2°48.627 12.467722 4.023265 34.5952  
2002-11-18 10:16:24 51°26.038 2°48.619 12.469484 4.024003 34.600127  
2002-11-18 10:17:24 51°26.046 2°48.612 12.479061 4.024214 34.594235  
2002-11-18 10:18:24 51°26.046 2°48.609 12.474724 4.024319 34.593808  
2002-11-18 10:19:24 51°26.04 2°48.612 12.482539 4.024319 34.594528  
2002-11-18 10:20:24 51°26.031 2°48.617 12.471427 4.02453 34.597271  
2002-11-18 10:21:24 51°26.022 2°48.622 12.469575 4.024214 34.597833  
2002-11-18 10:22:24 51°26.013 2°48.621 12.46849 4.023687 34.594931  
2002-11-18 10:23:24 51°26.011 2°48.616 12.47224 4.023898 34.596955  
2002-11-18 10:24:24 51°26.011 2°48.577 12.469258 4.023792 34.595943  
2002-11-18 10:25:24 51°26.021 2°48.536 12.47355 4.023687 34.593492  
2002-11-18 10:26:24 51°26.03 2°48.515 12.47233 4.024003 34.595089  
2002-11-18 10:27:24 51°26.033 2°48.501 12.476757 4.024635 34.593966  
2002-11-18 10:28:24 51°26.038 2°48.491 12.47477 4.024108 34.594662  
2002-11-18 10:29:24 51°26.041 2°48.483 12.485881 4.024741 34.598576  
2002-11-18 10:30:24 51°26.046 2°48.475 12.479332 4.024846 34.595271  
2002-11-18 10:31:24 51°26.057 2°48.471 12.47748 4.024846 34.59599  
2002-11-18 10:32:24 51°26.07 2°48.473 12.479196 4.024635 34.594686  
2002-11-18 10:33:24 51°26.084 2°48.48 12.480642 4.025163 34.599745  
2002-11-18 10:34:24 51°26.096 2°48.487 12.490217 4.025584 34.593722  
2002-11-18 10:35:24 51°26.1 2°48.49 12.486378 4.025584 34.594442  
2002-11-18 10:36:24 51°26.089 2°48.498 12.488727 4.02569 34.596172  
2002-11-18 10:37:24 51°26.078 2°48.525 12.491481 4.02569 34.595453  
2002-11-18 10:38:24 51°26.067 2°48.561 12.483849 4.025795 34.592869  
2002-11-18 10:39:24 51°26.056 2°48.588 12.483487 4.025162 34.588957  
2002-11-18 10:40:24 51°26.049 2°48.605 12.485023 4.025268 34.593564  
2002-11-18 10:41:24 51°26.047 2°48.612 12.483804 4.025163 34.592552  
2002-11-18 10:42:24 51°26.046 2°48.616 12.484662 4.024846 34.590955  
2002-11-18 10:43:24 51°26.046 2°48.621 12.483126 4.024846 34.590955  
2002-11-18 10:44:24 51°26.05 2°48.623 12.48561 4.02453 34.58792  
2002-11-18 10:45:24 51°26.058 2°48.624 12.497623 4.025268 34.584936  
2002-11-18 10:46:24 51°26.064 2°48.621 12.503809 4.026006 34.588422  
2002-11-18 10:47:24 51°26.068 2°48.614 12.500965 4.02569 34.584669  
2002-11-18 10:48:24 51°26.055 2°48.581 12.491843 4.025795 34.586399  
2002-11-18 10:49:24 51°26.009 2°48.488 12.49663 4.024635 34.583899  
2002-11-18 10:50:24 51°25.992 2°48.464 12.501326 4.024846 34.578734  
2002-11-18 10:51:24 51°25.985 2°48.478 12.51302 4.025373 34.579479  
2002-11-18 10:52:24 51°25.981 2°48.497 12.503313 4.025689 34.578921  
2002-11-18 10:53:24 51°25.984 2°48.515 12.49812 4.025057 34.57429  
2002-11-18 10:54:24 51°25.993 2°48.533 12.499384 4.024846 34.578016  
2002-11-18 10:55:24 51°26.007 2°48.554 12.499655 4.024741 34.575567  
2002-11-18 10:56:24 51°26.022 2°48.571 12.507647 4.026322 34.572777  
2002-11-18 10:57:24 51°26.032 2°48.586 12.502048 4.025689 34.578202  
2002-11-18 10:58:24 51°26.023 2°48.581 12.505751 4.025268 34.576313  
2002-11-18 10:59:24 51°26.014 2°48.533 12.508505 4.025479 34.575462  
2002-11-18 11:00:24 51°26.026 2°48.521 12.509273 4.025268 34.571285  
2002-11-18 11:01:24 51°26.036 2°48.514 12.514013 4.0259 34.571606  
2002-11-18 11:02:24 51°26.035 2°48.513 12.521642 4.026322 34.574213  
2002-11-18 11:03:24 51°26.025 2°48.52 12.513878 4.02706 34.572673  
2002-11-18 11:04:24 51°26.01 2°48.526 12.513381 4.024424 34.558171  
2002-11-18 11:05:24 51°25.994 2°48.536 12.511078 4.025689 34.57102  
2002-11-18 11:06:24 51°25.983 2°48.543 12.509408 4.025795 34.571313  
2002-11-18 11:07:24 51°25.976 2°48.561 12.519114 4.025795 34.567723  
2002-11-18 11:08:24 51°25.971 2°48.585 12.514239 4.025795 34.563416  
2002-11-18 11:09:23 51°25.968 2°48.604 12.513155 4.025795 34.569877  
2002-11-18 11:10:24 51°25.968 2°48.62 12.511214 4.022105 34.536651  
2002-11-18 11:11:24 51°25.965 2°48.636 12.510717 4.02474 34.563358  
2002-11-18 11:12:24 51°25.948 2°48.622 12.515638 4.025057 34.564954  
2002-11-18 11:13:24 51°25.971 2°48.535 12.527917 4.025795 34.567005  
2002-11-18 11:14:24 51°25.984 2°48.455 12.52751 4.026638 34.567913  
2002-11-18 11:15:24 51°26.012 2°48.442 12.531121 4.026533 34.566902  
2002-11-18 11:16:24 51°26.034 2°48.437 12.536492 4.027692 34.567254  
2002-11-18 11:17:24 51°26.046 2°48.44 12.535183 4.028009 34.570285  
2002-11-18 11:18:24 51°26.052 2°48.446 12.554722 4.02843 34.570739  
2002-11-18 11:19:24 51°26.053 2°48.459 12.580795 4.029906 34.573403  
2002-11-18 11:20:24 51°26.051 2°48.488 12.538297 4.029063 34.575365  
2002-11-18 11:21:24 51°26.046 2°48.52 12.534732 4.028009 34.569567  
2002-11-18 11:22:24 51°26.042 2°48.543 12.533513 4.028009 34.57172  
2002-11-18 11:23:24 51°26.036 2°48.566 12.538387 4.027903 34.569992  
2002-11-18 11:24:24 51°26.024 2°48.595 12.531708 4.028009 34.573873  
2002-11-18 11:25:24 51°25.958 2°48.565 12.538297 4.028009 34.56885  
2002-11-18 11:26:24 51°25.812 2°48.431 12.542088 4.028852 34.56904  
2002-11-18 11:27:24 51°25.631 2°48.28 12.549579 4.028957 34.568616  
2002-11-18 11:28:24 51°25.448 2°48.128 12.5503 4.02959 34.574677  
2002-11-18 11:29:24 51°25.262 2°47.974 12.553684 4.029695 34.570666  
2002-11-18 11:30:24 51°25.077 2°47.823 12.536853 4.029168 34.56705  
2002-11-18 11:31:24 51°24.894 2°47.671 12.501055 4.0259 34.557968  
2002-11-18 11:32:24 51°24.709 2°47.518 12.46831 4.021999 34.552147  
2002-11-18 11:33:24 51°24.525 2°47.367 12.434057 4.018309 34.544755  
2002-11-18 11:34:24 51°24.34 2°47.217 12.408016 4.015147 34.547457  
2002-11-18 11:35:24 51°24.156 2°47.063 12.381739 4.013144 34.550519  
2002-11-18 11:36:24 51°23.973 2°46.909 12.371651 4.010403 34.545771  
2002-11-18 11:37:24 51°23.788 2°46.755 12.374908 4.00977 34.539687  
2002-11-18 11:38:24 51°23.603 2°46.601 12.384906 4.009454 34.533045  
2002-11-18 11:39:24 51°23.418 2°46.444 12.393952 4.009665 34.526434  
2002-11-18 11:40:24 51°23.234 2°46.289 12.397525 4.00977 34.519532  
2002-11-18 11:41:24 51°23.049 2°46.133 12.393816 4.009138 34.514172  
2002-11-18 11:42:24 51°22.862 2°45.976 12.3897 4.007662 34.503582  
2002-11-18 11:43:24 51°22.676 2°45.821 12.397977 4.007451 34.502274  
2002-11-18 11:44:24 51°22.49 2°45.665 12.418687 4.008188 34.496426  
2002-11-18 11:45:24 51°22.303 2°45.508 12.472014 4.010613 34.501756  
2002-11-18 11:46:24 51°22.118 2°45.353 12.442192 4.012405 34.506037  
2002-11-18 11:47:24 51°21.931 2°45.198 12.455749 4.012827 34.505777  
2002-11-18 11:48:24 51°21.745 2°45.044 12.463837 4.014092 34.510741  
2002-11-18 11:49:24 51°21.557 2°44.889 12.478112 4.016517 34.512477  
2002-11-18 11:50:24 51°21.367 2°44.74 12.492701 4.017255 34.513099  
2002-11-18 11:51:24 51°21.178 2°44.591 12.482313 4.018098 34.513298  
2002-11-18 11:52:24 51°20.989 2°44.444 12.443277 4.014303 34.498411  
2002-11-18 11:53:24 51°20.799 2°44.294 12.406162 4.00998 34.487064  
2002-11-18 11:54:24 51°20.61 2°44.144 12.361471 4.003233 34.463182  
2002-11-18 11:55:24 51°20.417 2°44.001 12.370384 3.997962 34.442681  
2002-11-18 11:56:24 51°20.224 2°43.857 12.313217 3.993429 34.425666  
2002-11-18 11:57:24 51°20.031 2°43.714 12.302711 3.990583 34.414807  
2002-11-18 11:58:24 51°19.839 2°43.569 12.291704 3.988474 34.402418  
2002-11-18 11:59:24 51°19.647 2°43.422 12.284184 3.987631 34.397892  
2002-11-18 12:00:24 51°19.455 2°43.276 12.318107 3.987314 34.394128  
2002-11-18 12:01:24 51°19.264 2°43.128 12.34975 3.991004 34.405208  
2002-11-18 12:02:24 51°19.072 2°42.983 12.371651 3.995537 34.417928  
2002-11-18 12:03:24 51°18.881 2°42.839 12.397706 3.998067 34.422151  
2002-11-18 12:04:24 51°18.689 2°42.694 12.415838 4.000281 34.4219  
2002-11-18 12:05:24 51°18.498 2°42.55 12.42696 4.001757 34.420302  
2002-11-18 12:06:24 51°18.312 2°42.388 12.415793 4.001968 34.418743  
2002-11-18 12:07:24 51°18.139 2°42.196 12.383323 3.999121 34.408611  
2002-11-18 12:08:24 51°17.965 2°42.004 12.333682 3.994377 34.399601  
2002-11-18 12:09:24 51°17.79 2°41.813 12.266695 3.987736 34.383816  
2002-11-18 12:10:24 51°17.613 2°41.62 12.241269 3.980356 34.361621  
2002-11-18 12:11:24 51°17.437 2°41.427 12.226535 3.97751 34.352168  
2002-11-18 12:12:24 51°17.258 2°41.239 12.222137 3.975823 34.344538  
2002-11-18 12:13:24 51°17.067 2°41.079 12.229391 3.975823 34.346696  
2002-11-18 12:14:24 51°16.876 2°40.925 12.233925 3.977405 34.350432  
2002-11-18 12:15:24 51°16.68 2°40.783 12.240317 3.977616 34.354622  
2002-11-18 12:16:24 51°16.485 2°40.641 12.287809 3.979197 34.356199  
2002-11-18 12:17:22 51°16.298 2°40.503 12.316251 3.985627 34.370705  
2002-11-18 12:18:22 51°16.1 2°40.371 12.317881 3.987209 34.374435  
2002-11-18 12:19:22 51°15.903 2°40.239 12.318968 3.986998 34.37097  
2002-11-18 12:20:22 51°15.706 2°40.106 12.325895 3.986681 34.365773  
2002-11-18 12:21:22 51°15.508 2°39.978 12.332007 3.987736 34.368021  
2002-11-18 12:22:22 51°15.312 2°39.843 12.341015 3.987841 34.364013  
2002-11-18 12:23:22 51°15.115 2°39.709 12.349569 3.988579 34.361069  
2002-11-18 12:24:22 51°14.918 2°39.58 12.351968 3.989106 34.360401  
2002-11-18 12:25:22 51°14.72 2°39.448 12.340698 3.989001 34.359387  
2002-11-18 12:26:22 51°14.522 2°39.317 12.31444 3.987419 34.358523  
2002-11-18 12:27:22 51°14.322 2°39.187 12.259082 3.983941 34.355188  
2002-11-18 12:28:22 51°14.122 2°39.054 12.164025 3.976878 34.346071  
2002-11-18 12:29:22 51°13.922 2°38.915 12.064603 3.962119 34.318117  
2002-11-18 12:30:22 51°13.718 2°38.775 12.075738 3.9559 34.295486  
2002-11-18 12:31:22 51°13.524 2°38.617 12.101728 3.958113 34.298862  
2002-11-18 12:32:22 51°13.328 2°38.461 12.111539 3.959905 34.299603  
2002-11-18 12:33:22 51°13.133 2°38.306 12.106725 3.960643 34.300969  
2002-11-18 12:34:22 51°12.939 2°38.15 12.046056 3.958746 34.297045  
2002-11-18 12:35:22 51°12.745 2°37.991 11.979552 3.949364 34.28132  
2002-11-18 12:36:22 51°12.551 2°37.833 11.990656 3.943988 34.260303  
2002-11-18 12:37:23 51°12.354 2°37.671 12.020545 3.946518 34.266753  
2002-11-18 12:38:22 51°12.161 2°37.517 12.052921 3.950207 34.275763  
2002-11-18 12:39:22 51°11.966 2°37.359 12.082191 3.95337 34.281111  
2002-11-18 12:40:22 51°11.771 2°37.201 12.136062 3.957481 34.283374  
2002-11-18 12:41:22 51°11.577 2°37.042 12.203951 3.962224 34.284555  
2002-11-18 12:42:22 51°11.384 2°36.88 12.126345 3.962857 34.281308  
2002-11-18 12:43:23 51°11.169 2°36.792 12.02764 3.956532 34.26844  
2002-11-18 12:44:22 51°10.953 2°36.751 11.992977 3.942301 34.224463  
2002-11-18 12:45:22 51°10.732 2°36.727 12.077147 3.943249 34.22211  
2002-11-18 12:46:22 51°10.514 2°36.726 12.069967 3.941562 34.156837  
2002-11-18 12:47:22 51°10.293 2°36.736 12.126436 3.941773 34.14379  
2002-11-18 12:48:22 51°10.083 2°36.755 12.099411 3.945778 34.155931  
2002-11-18 12:49:22 51°9.882 2°36.807 12.005853 3.937451 34.131455  
2002-11-18 12:50:23 51°9.678 2°36.889 11.955063 3.926171 34.081232  
2002-11-18 12:51:22 51°9.488 2°36.974 11.912481 3.920163 34.056099  
2002-11-18 12:52:22 51°9.352 2°37.024 11.892478 3.913838 34.0365  
2002-11-18 12:53:22 51°9.264 2°37.023 11.932569 3.913417 34.038167  
2002-11-18 12:54:23 51°9.204 2°37.054 11.905966 3.913627 34.041652  
2002-11-18 12:55:22 51°9.159 2°37.1 11.915078 3.914471 34.038317  
2002-11-18 12:56:22 51°9.141 2°37.134 11.91936 3.916157 34.046759  
2002-11-18 12:57:22 51°9.141 2°37.155 11.921546 3.916157 34.042442  
2002-11-18 12:58:22 51°9.142 2°37.169 11.921683 3.916368 34.043767  
2002-11-18 12:59:22 51°9.144 2°37.179 11.944545 3.916579 34.040777  
2002-11-18 13:00:23 51°9.15 2°37.186 11.942223 3.919214 34.046187  
2002-11-18 13:01:22 51°9.154 2°37.192 11.927604 3.917844 34.045847  
2002-11-18 13:02:22 51°9.16 2°37.195 11.972179 3.918265 34.043463  
2002-11-18 13:03:22 51°9.167 2°37.198 11.929471 3.918582 34.04509  
2002-11-18 13:04:23 51°9.171 2°37.2 11.926784 3.917317 34.046491  
2002-11-18 13:05:22 51°9.173 2°37.201 12.000484 3.917106 34.045167  
2002-11-18 13:06:22 51°9.172 2°37.2 11.928333 3.917106 34.044448  
2002-11-18 13:07:22 51°9.168 2°37.198 11.941768 3.917422 34.047513  
2002-11-18 13:08:22 51°9.162 2°37.198 11.954517 3.918371 34.049518  
2002-11-18 13:09:22 51°9.154 2°37.196 11.93266 3.918898 34.046717  
2002-11-18 13:10:22 51°9.146 2°37.19 11.929062 3.917633 34.045961  
2002-11-18 13:11:22 51°9.138 2°37.18 11.928105 3.917738 34.04986  
2002-11-18 13:12:22 51°9.132 2°37.167 11.928242 3.917422 34.046794  
2002-11-18 13:13:22 51°9.13 2°37.154 11.927741 3.917317 34.047211  
2002-11-18 13:14:22 51°9.131 2°37.142 11.926875 3.917422 34.048233  
2002-11-18 13:15:22 51°9.133 2°37.131 11.938489 3.917317 34.048649  
2002-11-18 13:16:22 51°9.136 2°37.122 11.948552 3.919003 34.046301  
2002-11-18 13:17:22 51°9.139 2°37.116 11.936303 3.919319 34.049365  
2002-11-18 13:18:22 51°9.144 2°37.112 11.940857 3.918265 34.049215  
2002-11-18 13:19:22 51°9.15 2°37.112 11.926602 3.918371 34.050237  
2002-11-18 13:20:22 51°9.158 2°37.113 11.924917 3.917422 34.050391  
2002-11-18 13:21:23 51°9.165 2°37.116 11.924507 3.917317 34.050807  
2002-11-18 13:22:23 51°9.172 2°37.119 11.923277 3.917211 34.049785  
2002-11-18 13:23:23 51°9.179 2°37.121 11.920817 3.917211 34.051224  
2002-11-18 13:24:23 51°9.185 2°37.125 11.922913 3.91679 34.047136  
2002-11-18 13:25:23 51°9.192 2°37.13 11.923414 3.917 34.048461  
2002-11-18 13:26:23 51°9.199 2°37.135 11.920954 3.917422 34.050391  
2002-11-18 13:27:23 51°9.207 2°37.14 11.920088 3.916895 34.051036  
2002-11-18 13:28:23 51°9.213 2°37.146 11.923095 3.916895 34.048877  
2002-11-18 13:29:23 51°9.218 2°37.147 11.924051 3.917528 34.049974  
2002-11-18 13:30:23 51°9.216 2°37.142 11.924279 3.917211 34.047627  
2002-11-18 13:31:23 51°9.208 2°37.137 11.92355 3.917211 34.047627  
2002-11-18 13:32:23 51°9.194 2°37.136 11.929426 3.917 34.04918  
2002-11-18 13:33:23 51°9.18 2°37.132 11.917355 3.917 34.050619  
2002-11-18 13:34:23 51°9.168 2°37.128 11.924552 3.91679 34.051453  
2002-11-18 13:35:23 51°9.156 2°37.128 11.92765 3.91679 34.047136  
2002-11-18 13:36:23 51°9.144 2°37.13 11.918357 3.918265 34.050653  
2002-11-18 13:37:23 51°9.133 2°37.132 11.913346 3.916895 34.052475  
2002-11-18 13:38:23 51°9.124 2°37.133 11.91321 3.916368 34.051682  
2002-11-18 13:39:23 51°9.12 2°37.133 11.912208 3.916579 34.052287  
2002-11-18 13:40:23 51°9.119 2°37.133 11.911934 3.916579 34.053007  
2002-11-18 13:41:23 51°9.121 2°37.132 11.949964 3.916263 34.051379  
2002-11-18 13:42:23 51°9.126 2°37.13 11.925782 3.916473 34.051984  
2002-11-18 13:43:23 51°9.132 2°37.128 11.918722 3.917633 34.051715  
2002-11-18 13:44:23 51°9.139 2°37.126 11.934163 3.916684 34.050431  
2002-11-18 13:45:23 51°9.147 2°37.125 11.938944 3.91816 34.053228  
2002-11-18 13:46:23 51°9.155 2°37.125 11.922776 3.91816 34.053228  
2002-11-18 13:47:23 51°9.163 2°37.128 11.919223 3.917106 34.049483  
2002-11-18 13:48:23 51°9.172 2°37.131 11.919997 3.916895 34.052475  
2002-11-18 13:49:23 51°9.181 2°37.136 11.920362 3.917528 34.05429  
2002-11-18 13:50:23 51°9.189 2°37.141 11.917538 3.918687 34.053302  
2002-11-18 13:51:23 51°9.198 2°37.147 11.917993 3.918055 34.052925  
2002-11-18 13:52:23 51°9.207 2°37.143 11.917401 3.917422 34.049671  
2002-11-18 13:53:23 51°9.195 2°37.112 11.91444 3.917528 34.05429  
2002-11-18 13:54:23 51°9.176 2°37.1 11.921728 3.917 34.047741  
2002-11-18 13:55:23 51°9.162 2°37.096 11.934755 3.917844 34.050162  
2002-11-18 13:56:23 51°9.151 2°37.094 11.917128 3.918265 34.05425  
2002-11-18 13:57:23 51°9.141 2°37.092 11.915579 3.917106 34.05308  
2002-11-18 13:58:23 51°9.134 2°37.089 11.914895 3.917211 34.053383  
2002-11-18 13:59:23 51°9.129 2°37.084 11.912982 3.917001 34.055656  
2002-11-18 14:00:23 51°9.13 2°37.08 11.915898 3.917106 34.055239  
2002-11-18 14:01:23 51°9.135 2°37.077 11.917902 3.917 34.050619  
2002-11-18 14:02:23 51°9.141 2°37.072 11.916535 3.917211 34.051224  
2002-11-18 14:03:23 51°9.148 2°37.07 11.918357 3.91679 34.050014  
2002-11-18 14:04:23 51°9.154 2°37.066 11.917902 3.917211 34.051944  
2002-11-18 14:05:24 51°9.162 2°37.079 11.920362 3.917422 34.053268  
2002-11-18 14:06:23 51°9.168 2°37.103 11.917355 3.917527 34.048535  
2002-11-18 14:07:24 51°9.173 2°37.122 11.915169 3.916895 34.048877  
2002-11-18 14:08:23 51°9.175 2°37.146 11.916991 3.917106 34.050922  
2002-11-18 14:09:23 51°9.18 2°37.15 11.913574 3.917106 34.050922  
2002-11-18 14:10:24 51°9.229 2°37.063 11.917128 3.917211 34.050505  
2002-11-18 14:11:23 51°9.31 2°37.173 11.913711 3.917633 34.053154  
2002-11-18 14:12:23 51°9.43 2°37.451 11.921911 3.917528 34.052851  
2002-11-18 14:13:23 51°9.545 2°37.778 11.924552 3.917633 34.048119  
2002-11-18 14:14:23 51°9.644 2°38.119 11.921956 3.917211 34.044031  
2002-11-18 14:15:23 51°9.737 2°38.467 11.921318 3.917106 34.046605  
2002-11-18 14:16:24 51°9.83 2°38.821 11.916672 3.916684 34.044675  
2002-11-18 14:17:23 51°9.92 2°39.164 11.911706 3.916052 34.04142  
2002-11-18 14:18:23 51°10.011 2°39.512 11.873336 3.914681 34.038923  
2002-11-18 14:19:23 51°10.102 2°39.859 11.794063 3.906776 34.009711  
2002-11-18 14:20:23 51°10.193 2°40.206 11.736305 3.894021 33.951325  
2002-11-18 14:21:23 51°10.281 2°40.554 11.680462 3.881267 33.880546  
2002-11-18 14:22:24 51°10.371 2°40.907 11.679136 3.87178 33.822018  
2002-11-18 14:23:23 51°10.46 2°41.246 11.649093 3.86925 33.800259  
2002-11-18 14:24:23 51°10.55 2°41.59 11.606313 3.861766 33.781302  
2002-11-18 14:25:24 51°10.641 2°41.94 11.593542 3.857972 33.755815  
2002-11-18 14:26:23 51°10.73 2°42.278 11.618349 3.851964 33.714479  
2002-11-18 14:27:23 51°10.82 2°42.621 11.626311 3.854598 33.699209  
2002-11-18 14:28:23 51°10.911 2°42.969 11.620729 3.853755 33.698172  
2002-11-18 14:29:23 51°11.001 2°43.319 11.647538 3.855125 33.705063  
2002-11-18 14:30:23 51°11.091 2°43.67 11.715107 3.860817 33.731072  
2002-11-18 14:31:23 51°11.182 2°44.017 11.752473 3.873255 33.78823  
2002-11-18 14:32:23 51°11.273 2°44.363 11.743979 3.876523 33.809238  
2002-11-18 14:33:24 51°11.364 2°44.715 11.735574 3.875258 33.804836  
2002-11-18 14:34:24 51°11.454 2°45.062 11.730595 3.874098 33.800021  
2002-11-18 14:35:24 51°11.544 2°45.407 11.724519 3.872728 33.790282  
2002-11-18 14:36:24 51°11.634 2°45.753 11.717391 3.871885 33.784951  
2002-11-18 14:37:24 51°11.73 2°46.097 11.706105 3.870093 33.779005  
2002-11-18 14:38:24 51°11.828 2°46.44 11.704414 3.869144 33.776236  
2002-11-18 14:39:24 51°11.927 2°46.782 11.715061 3.871252 33.794597  
2002-11-18 14:40:24 51°12.027 2°47.122 12.853546 3.872201 33.801674  
2002-11-18 14:41:23 51°12.136 2°47.448 11.691205 3.870198 33.792242  
2002-11-18 14:42:23 51°12.246 2°47.78 11.680782 3.869144 33.792042  
2002-11-18 14:43:23 51°12.356 2°48.111 11.658514 3.867563 33.78743  
2002-11-18 14:44:23 51°12.464 2°48.447 11.630932 3.861871 33.752833  
2002-11-18 14:45:23 51°12.569 2°48.782 11.607595 3.855547 33.71923  
2002-11-18 14:46:23 51°12.677 2°49.116 11.590567 3.852701 33.707295  
2002-11-18 14:47:23 51°12.782 2°49.452 11.575366 3.849961 33.694943  
2002-11-18 14:48:23 51°12.888 2°49.788 11.553933 3.846799 33.679189  
2002-11-18 14:49:23 51°13.001 2°50.116 11.530614 3.842688 33.662793  
2002-11-18 14:50:23 51°13.114 2°50.443 11.50417 3.83921 33.647526  
2002-11-18 14:51:23 51°13.226 2°50.771 11.5652 3.836575 33.641206  
2002-11-18 14:52:23 51°13.339 2°51.097 11.469002 3.833624 33.628193  
2002-11-18 14:53:23 51°13.452 2°51.424 11.45304 3.830567 33.615581  
2002-11-18 14:54:23 51°13.564 2°51.75 11.435238 3.827932 33.604206  
2002-11-18 14:55:23 51°13.675 2°52.077 11.419129 3.826141 33.600355  
2002-11-18 14:56:23 51°13.786 2°52.404 11.395028 3.822768 33.58751  
2002-11-18 14:57:23 51°13.897 2°52.732 11.381023 3.81929 33.57074  
2002-11-18 14:58:23 51°14.008 2°53.058 11.368208 3.816022 33.551702  
2002-11-18 14:59:23 51°14.118 2°53.384 11.358286 3.813914 33.541134  
2002-11-18 15:00:23 51°14.226 2°53.705 11.343997 3.812439 33.536759  
2002-11-18 15:01:23 51°14.324 2°54.003 11.320833 3.81012 33.524117  
2002-11-18 15:02:23 51°14.396 2°54.305 11.04736 3.800529 33.480483  
2002-11-18 15:03:23 51°14.421 2°54.62 10.967504 3.716217 32.904609  
2002-11-18 15:04:23 51°14.39 2°54.931 11.00622 3.730971 33.072305  
2002-11-18 15:05:23 51°14.301 2°55.183 10.87427 3.684496 32.600021  
2002-11-18 15:06:23 51°14.218 2°55.324 11.094379 3.539401 31.282209  
2002-11-18 15:07:23 51°14.138 2°55.402 11.160489 3.486093 30.777688  
2002-11-18 15:08:23 51°14.063 2°55.455 11.14376 3.487778 30.785485  
2002-11-18 15:09:23 51°13.989 2°55.508 11.085245 3.481773 30.711286  
2002-11-18 15:10:23 51°13.915 2°55.563 11.150812 3.46123 30.495698  
2002-11-18 15:11:23 51°13.843 2°55.62 11.164867 3.46281 30.47932  
2002-11-18 15:12:23 51°13.782 2°55.675 11.069974 3.433314 30.175744  
2002-11-18 15:13:23 51°13.737 2°55.734 11.093502 3.360318 29.481381  
2002-11-18 15:14:23 51°13.706 2°55.797 10.97194 3.310185 29.000867  
2002-11-18 15:15:23 51°13.683 2°55.863 11.322856 3.229834 28.231304  
2002-11-18 15:16:23 51°13.671 2°55.924 11.024185 3.204142 28.012816  
2002-11-18 15:17:23 51°13.667 2°55.946 10.885561 3.217409 28.125848  
2002-11-18 15:18:23 51°13.666 2°55.95 11.038636 3.207827 28.066766  
2002-11-18 15:19:26 51°13.666 2°55.953 11.126474 3.252896 28.471742  
2002-11-18 15:20:28 51°13.668 2°55.954 11.111996 3.285015 28.764932